Time;durP1;ratioP1;P1;durP2;ratioP2;P2;SDS_P1;SDS_P2;PMS_P1;PMS_P2;Temp;Humidity;BMP_temperature;BMP_pressure;BME280_temperature;BME280_humidity;BME280_pressure;Samples;Min_cycle;Max_cycle;Signal;HPM_P1;HPM_P2
2021/07/06 00:01:04;;;;;;;1.20;1.00;;;16.30;98.00;;;;;;5092554;28;20467;-70
2021/07/06 00:03:31;;;;;;;1.40;1.37;;;16.30;98.00;;;;;;5091407;28;20965;-69
2021/07/06 00:05:58;;;;;;;1.20;1.07;;;16.20;98.00;;;;;;5092197;28;20456;-70
2021/07/06 00:08:26;;;;;;;1.27;1.20;;;16.40;98.00;;;;;;5092433;28;20487;-70
2021/07/06 00:10:55;;;;;;;1.20;1.00;;;16.40;98.00;;;;;;5092108;28;21027;-70
2021/07/06 00:13:22;;;;;;;1.20;1.00;;;16.50;98.00;;;;;;5092259;28;20460;-70
2021/07/06 00:15:49;;;;;;;1.20;1.20;;;16.70;98.00;;;;;;5092110;28;20455;-70
2021/07/06 00:18:17;;;;;;;1.20;1.00;;;16.60;98.00;;;;;;5092506;28;20474;-70
2021/07/06 00:20:44;;;;;;;1.37;1.27;;;16.30;98.00;;;;;;5091829;28;20521;-70
2021/07/06 00:23:11;;;;;;;1.40;1.30;;;16.30;98.00;;;;;;5091973;28;20444;-69
2021/07/06 00:25:38;;;;;;;1.43;1.10;;;16.20;98.00;;;;;;5092050;28;20464;-70
2021/07/06 00:28:18;;;;;;;1.40;1.10;;;16.10;98.00;;;;;;5091987;28;20537;-69
2021/07/06 00:30:45;;;;;;;2.30;1.30;;;16.10;98.00;;;;;;5091971;28;20460;-70
2021/07/06 00:33:15;;;;;;;1.20;1.10;;;16.20;98.00;;;;;;5091830;28;20459;-70
2021/07/06 00:35:42;;;;;;;1.40;1.20;;;16.30;98.00;;;;;;5089839;28;20699;-70
2021/07/06 00:38:10;;;;;;;1.20;1.03;;;16.30;98.00;;;;;;5091642;28;20460;-70
2021/07/06 00:40:37;;;;;;;1.20;1.10;;;16.20;98.00;;;;;;5091592;28;20513;-70
2021/07/06 00:43:04;;;;;;;1.50;1.13;;;16.20;98.00;;;;;;5091510;28;20875;-70
2021/07/06 00:45:32;;;;;;;1.50;1.10;;;16.20;98.00;;;;;;5091699;28;20464;-70
2021/07/06 00:48:01;;;;;;;1.20;1.00;;;16.20;98.00;;;;;;5091448;28;20540;-70
2021/07/06 00:50:29;;;;;;;1.30;1.10;;;16.20;98.00;;;;;;5091473;28;20460;-70
2021/07/06 00:52:57;;;;;;;1.40;1.20;;;16.10;98.00;;;;;;5091470;28;20460;-70
2021/07/06 00:55:24;;;;;;;1.20;1.07;;;16.20;98.00;;;;;;5091464;28;20467;-70
2021/07/06 00:57:51;;;;;;;1.77;1.30;;;15.90;98.00;;;;;;5090978;28;20887;-70
2021/07/06 01:00:21;;;;;;;1.20;1.10;;;15.80;98.00;;;;;;5091385;28;20452;-69
2021/07/06 01:02:50;;;;;;;1.20;1.10;;;15.60;98.00;;;;;;5091311;28;20464;-69
2021/07/06 01:05:20;;;;;;;1.30;1.20;;;15.60;98.00;;;;;;5091284;28;20880;-69
2021/07/06 01:07:47;;;;;;;1.20;1.07;;;15.70;98.00;;;;;;5091491;28;20459;-69
2021/07/06 01:10:16;;;;;;;1.20;1.07;;;15.70;98.00;;;;;;5091163;28;20520;-69
2021/07/06 01:12:45;;;;;;;1.20;1.20;;;15.60;98.00;;;;;;5091535;28;20459;-70
2021/07/06 01:15:14;;;;;;;1.20;1.00;;;15.60;98.00;;;;;;5091374;28;20522;-69
2021/07/06 01:17:43;;;;;;;1.20;1.10;;;15.70;98.00;;;;;;5091479;28;20532;-70
2021/07/06 01:20:15;;;;;;;1.30;1.20;;;15.70;98.00;;;;;;5090965;28;20456;-69
2021/07/06 01:22:45;;;;;;;2.50;1.20;;;15.60;98.00;;;;;;5091146;28;20539;-70
2021/07/06 01:25:14;;;;;;;1.20;1.10;;;15.50;98.00;;;;;;5091200;28;20451;-70
2021/07/06 01:27:41;;;;;;;1.70;1.27;;;15.60;98.00;;;;;;5091264;28;20466;-69
2021/07/06 01:30:11;;;;;;;1.60;1.53;;;15.70;98.00;;;;;;5089994;28;20471;-69
2021/07/06 01:32:42;;;;;;;1.40;1.20;;;16.00;98.00;;;;;;5091214;28;20517;-70
2021/07/06 01:35:13;;;;;;;1.20;1.10;;;16.00;98.00;;;;;;5090887;28;20471;-70
2021/07/06 01:37:47;;;;;;;1.40;1.20;;;15.90;98.00;;;;;;5092179;28;20532;-69
2021/07/06 01:40:15;;;;;;;1.50;1.30;;;16.00;98.00;;;;;;5090341;28;20463;-69
2021/07/06 01:42:43;;;;;;;1.40;1.30;;;15.80;98.00;;;;;;5091555;28;20862;-70
2021/07/06 01:45:12;;;;;;;1.20;1.10;;;15.60;98.00;;;;;;5092017;28;20537;-70
2021/07/06 01:47:40;;;;;;;1.70;1.40;;;15.70;98.00;;;;;;5092784;28;20462;-69
2021/07/06 01:50:10;;;;;;;1.30;1.17;;;15.60;98.00;;;;;;5095157;28;20486;-69
2021/07/06 01:52:42;;;;;;;1.70;1.20;;;15.50;98.00;;;;;;5094945;28;20989;-69
2021/07/06 01:55:13;;;;;;;1.20;1.10;;;15.50;98.00;;;;;;5094925;28;20541;-69
2021/07/06 01:57:41;;;;;;;1.20;1.00;;;15.40;98.00;;;;;;5093693;28;20455;-70
2021/07/06 02:00:11;;;;;;;1.57;1.57;;;15.40;98.00;;;;;;5094723;28;20447;-69
2021/07/06 02:02:38;;;;;;;1.40;1.10;;;15.40;98.00;;;;;;5094851;28;20486;-69
2021/07/06 02:05:25;;;;;;;1.40;1.20;;;15.30;98.00;;;;;;5094639;28;20459;-70
2021/07/06 02:07:52;;;;;;;2.47;1.40;;;15.20;98.00;;;;;;5094479;28;20462;-70
2021/07/06 02:10:24;;;;;;;1.20;1.10;;;15.20;98.00;;;;;;5094572;28;20526;-69
2021/07/06 02:12:51;;;;;;;1.40;1.23;;;15.20;98.00;;;;;;5094484;28;20462;-69
2021/07/06 02:15:19;;;;;;;1.37;1.13;;;15.10;98.00;;;;;;5094605;28;20938;-69
2021/07/06 02:17:47;;;;;;;1.33;1.10;;;15.10;98.00;;;;;;5094520;28;20458;-69
2021/07/06 02:20:17;;;;;;;1.20;1.03;;;15.20;98.00;;;;;;5094270;28;20471;-69
2021/07/06 02:22:46;;;;;;;1.30;1.23;;;15.20;98.00;;;;;;5094494;28;20459;-69
2021/07/06 02:25:15;;;;;;;1.50;1.23;;;15.20;98.00;;;;;;5094207;28;20465;-69
2021/07/06 02:27:45;;;;;;;1.47;1.30;;;15.20;98.00;;;;;;5094533;28;20516;-70
2021/07/06 02:30:14;;;;;;;2.33;1.40;;;15.40;98.00;;;;;;5094067;28;20483;-69
2021/07/06 03:13:22;;;;;;;1.20;1.03;;;15.20;98.00;;;;;;5093374;28;20921;-69
2021/07/06 03:15:49;;;;;;;1.50;1.20;;;15.30;98.00;;;;;;5093653;28;20864;-69
2021/07/06 03:18:16;;;;;;;1.30;1.10;;;15.20;98.00;;;;;;5093188;28;20461;-69
2021/07/06 03:20:43;;;;;;;1.20;1.00;;;15.10;98.00;;;;;;5092974;28;20889;-69
2021/07/06 03:23:10;;;;;;;1.93;1.20;;;15.10;98.00;;;;;;5093009;28;20523;-69
2021/07/06 03:25:37;;;;;;;1.30;1.10;;;15.00;98.00;;;;;;5092935;28;21029;-69
2021/07/06 03:28:05;;;;;;;1.20;1.03;;;15.10;98.00;;;;;;5093247;28;20453;-69
2021/07/06 03:30:36;;;;;;;1.30;1.20;;;15.10;98.00;;;;;;5093143;28;20465;-69
2021/07/06 03:33:05;;;;;;;1.20;1.13;;;15.20;98.00;;;;;;5093075;28;20810;-69
2021/07/06 03:35:34;;;;;;;1.20;1.10;;;15.10;98.00;;;;;;5093049;28;20462;-69
2021/07/06 03:38:01;;;;;;;1.20;1.10;;;15.00;98.00;;;;;;5092164;28;20774;-69
2021/07/06 03:40:30;;;;;;;1.30;1.17;;;14.90;98.00;;;;;;5092925;28;20461;-69
2021/07/06 03:42:58;;;;;;;1.20;1.10;;;14.80;98.00;;;;;;5092832;28;20517;-69
2021/07/06 03:45:26;;;;;;;1.20;1.10;;;14.80;98.00;;;;;;5092776;28;20466;-69
2021/07/06 03:47:56;;;;;;;1.20;1.20;;;14.80;98.00;;;;;;5092818;28;20458;-69
2021/07/06 03:50:25;;;;;;;1.53;1.17;;;14.80;98.00;;;;;;5092844;28;20497;-69
2021/07/06 03:52:55;;;;;;;4.40;2.60;;;14.80;98.00;;;;;;5092886;28;20534;-69
2021/07/06 03:55:22;;;;;;;1.77;1.73;;;14.90;98.00;;;;;;5092765;28;20809;-69
2021/07/06 03:57:49;;;;;;;1.20;1.10;;;15.10;98.00;;;;;;5092943;28;20529;-69
2021/07/06 04:00:20;;;;;;;1.20;1.10;;;15.20;98.00;;;;;;5092507;28;20512;-69
2021/07/06 04:02:47;;;;;;;1.20;1.10;;;15.40;98.00;;;;;;5092304;28;20464;-69
2021/07/06 04:05:16;;;;;;;1.47;1.30;;;15.50;98.00;;;;;;5092483;28;20457;-69
2021/07/06 04:07:45;;;;;;;1.40;1.30;;;15.60;98.00;;;;;;5092352;28;20457;-69
2021/07/06 04:10:15;;;;;;;1.30;1.20;;;15.50;98.00;;;;;;5091836;28;21028;-69
2021/07/06 04:12:43;;;;;;;2.40;1.30;;;15.50;98.00;;;;;;5091935;28;20461;-69
2021/07/06 04:15:12;;;;;;;1.57;1.20;;;15.50;98.00;;;;;;5092155;28;20463;-69
2021/07/06 04:17:43;;;;;;;1.20;1.10;;;15.40;98.00;;;;;;5091020;28;20446;-69
2021/07/06 04:20:13;;;;;;;2.60;1.43;;;15.40;98.00;;;;;;5092257;28;20797;-69
2021/07/06 04:22:42;;;;;;;1.20;1.10;;;15.30;98.00;;;;;;5091931;28;20507;-69
2021/07/06 04:25:10;;;;;;;1.40;1.30;;;15.30;98.00;;;;;;5092008;28;20461;-69
2021/07/06 04:27:37;;;;;;;1.20;1.10;;;15.40;98.00;;;;;;5092109;28;20461;-69
2021/07/06 04:30:06;;;;;;;1.40;1.10;;;15.50;98.00;;;;;;5091763;28;20482;-69
2021/07/06 04:32:33;;;;;;;1.57;1.50;;;15.50;98.00;;;;;;5091900;28;20489;-69
2021/07/06 04:35:00;;;;;;;1.30;1.30;;;15.60;98.00;;;;;;5092072;28;20466;-69
2021/07/06 04:37:27;;;;;;;1.43;1.37;;;15.50;98.00;;;;;;5091885;28;20458;-69
2021/07/06 04:39:56;;;;;;;1.20;1.03;;;15.50;98.00;;;;;;5091887;28;20458;-69
2021/07/06 04:42:23;;;;;;;1.30;1.23;;;15.40;98.00;;;;;;5091658;28;20459;-69
2021/07/06 04:44:53;;;;;;;1.60;1.17;;;15.40;98.00;;;;;;5091725;28;20455;-69
2021/07/06 04:47:20;;;;;;;1.40;1.33;;;15.40;98.00;;;;;;5091788;28;20471;-69
2021/07/06 04:49:47;;;;;;;1.20;1.10;;;15.40;98.00;;;;;;5091382;28;20564;-69
2021/07/06 04:52:14;;;;;;;1.27;1.20;;;15.40;98.00;;;;;;5091127;28;20464;-69
2021/07/06 04:54:41;;;;;;;1.20;1.13;;;15.50;98.00;;;;;;5091522;28;20481;-69
2021/07/06 04:57:10;;;;;;;1.70;1.30;;;15.60;98.00;;;;;;5091447;28;20532;-69
2021/07/06 04:59:37;;;;;;;2.47;1.50;;;15.70;98.00;;;;;;5091353;28;20485;-69
2021/07/06 05:02:05;;;;;;;1.30;1.20;;;15.80;98.00;;;;;;5091201;28;20462;-69
2021/07/06 05:04:33;;;;;;;1.40;1.30;;;15.90;98.00;;;;;;5091328;28;20485;-69
2021/07/06 05:07:02;;;;;;;1.20;1.10;;;16.10;98.00;;;;;;5091597;28;20478;-69
2021/07/06 05:09:31;;;;;;;1.40;1.20;;;16.20;98.00;;;;;;5090814;28;20484;-69
2021/07/06 05:11:58;;;;;;;1.20;1.00;;;16.20;98.00;;;;;;5091620;28;20819;-69
2021/07/06 05:14:27;;;;;;;1.30;1.10;;;16.30;98.00;;;;;;5091418;28;20455;-69
2021/07/06 05:16:57;;;;;;;1.20;1.10;;;16.40;98.00;;;;;;5091621;28;20460;-69
2021/07/06 05:19:24;;;;;;;1.20;1.10;;;16.50;98.00;;;;;;5090872;28;20451;-69
2021/07/06 05:21:52;;;;;;;1.30;1.20;;;16.70;98.00;;;;;;5090496;28;20537;-69
2021/07/06 05:24:19;;;;;;;1.20;1.03;;;16.80;98.00;;;;;;5091282;28;20861;-69
2021/07/06 05:26:46;;;;;;;1.20;1.07;;;16.80;98.00;;;;;;5091355;28;20768;-69
2021/07/06 05:29:14;;;;;;;1.20;1.10;;;16.80;98.00;;;;;;5091003;28;20539;-69
2021/07/06 05:31:43;;;;;;;1.17;1.00;;;16.80;98.00;;;;;;5091088;28;20459;-69
2021/07/06 05:34:10;;;;;;;1.50;1.10;;;16.90;98.00;;;;;;5091093;28;20875;-68
2021/07/06 05:36:37;;;;;;;1.20;1.20;;;16.90;98.00;;;;;;5091081;28;20463;-69
2021/07/06 05:39:06;;;;;;;1.70;1.40;;;16.90;98.00;;;;;;5090968;28;20537;-69
2021/07/06 05:41:34;;;;;;;2.13;1.10;;;16.90;98.00;;;;;;5089588;28;20464;-69
2021/07/06 05:44:01;;;;;;;1.10;1.00;;;17.00;98.00;;;;;;5091045;28;20946;-69
2021/07/06 05:46:29;;;;;;;1.60;1.20;;;17.00;98.00;;;;;;5090889;28;20460;-69
2021/07/06 05:48:58;;;;;;;1.20;1.00;;;17.00;98.00;;;;;;5090388;28;20491;-69
2021/07/06 05:51:25;;;;;;;1.23;1.17;;;17.10;98.00;;;;;;5090510;28;20863;-69
2021/07/06 05:53:53;;;;;;;1.20;1.20;;;17.10;98.00;;;;;;5090792;28;20536;-70
2021/07/06 05:56:21;;;;;;;1.30;1.10;;;17.10;98.00;;;;;;5090771;28;20459;-69
2021/07/06 05:58:48;;;;;;;1.57;1.33;;;17.20;98.00;;;;;;5090699;28;21002;-70
2021/07/06 06:01:16;;;;;;;1.20;1.10;;;17.20;98.00;;;;;;5090690;28;20513;-69
2021/07/06 06:03:43;;;;;;;1.20;1.10;;;17.30;98.00;;;;;;5090665;28;20537;-69
2021/07/06 06:06:12;;;;;;;1.30;1.20;;;17.50;98.00;;;;;;5090612;28;20464;-69
2021/07/06 06:08:41;;;;;;;1.10;1.00;;;17.60;98.00;;;;;;5090780;28;20605;-69
2021/07/06 06:11:10;;;;;;;1.37;1.27;;;17.90;98.00;;;;;;5090364;28;20480;-69
2021/07/06 06:13:37;;;;;;;1.30;1.20;;;18.00;98.00;;;;;;5090580;28;20532;-68
2021/07/06 06:16:05;;;;;;;1.17;1.00;;;18.10;98.00;;;;;;5090583;28;20861;-68
2021/07/06 06:18:32;;;;;;;1.20;1.20;;;18.10;98.00;;;;;;5090751;28;20815;-69
2021/07/06 06:21:01;;;;;;;1.40;1.20;;;18.20;98.00;;;;;;5090426;28;20460;-69
2021/07/06 06:23:29;;;;;;;1.30;1.30;;;18.30;98.00;;;;;;5090364;28;20456;-68
2021/07/06 06:25:56;;;;;;;1.77;1.30;;;18.40;98.00;;;;;;5090798;28;21027;-69
2021/07/06 06:28:23;;;;;;;1.20;1.00;;;18.40;98.00;;;;;;5090610;28;20898;-69
2021/07/06 06:30:50;;;;;;;1.30;1.20;;;18.50;98.00;;;;;;5090375;28;20552;-69
2021/07/06 06:33:18;;;;;;;1.20;1.00;;;18.60;98.00;;;;;;5090645;28;20456;-69
2021/07/06 06:35:44;;;;;;;1.13;1.10;;;18.80;98.00;;;;;;5093623;28;20447;-69
2021/07/06 06:38:12;;;;;;;3.23;1.37;;;18.80;98.00;;;;;;5094232;28;20517;-69
2021/07/06 06:40:40;;;;;;;1.20;1.00;;;19.00;98.00;;;;;;5094191;28;20448;-69
2021/07/06 06:43:07;;;;;;;1.30;1.13;;;19.10;98.00;;;;;;5094007;28;20452;-69
2021/07/06 06:45:34;;;;;;;1.20;1.00;;;19.20;98.00;;;;;;5093987;28;20464;-70
2021/07/06 06:48:01;;;;;;;1.50;1.50;;;19.40;98.00;;;;;;5094067;28;20452;-69
2021/07/06 06:50:28;;;;;;;1.30;1.20;;;19.50;98.00;;;;;;5092493;28;20487;-69
2021/07/06 06:52:56;;;;;;;1.50;1.13;;;19.70;98.00;;;;;;5093886;28;20517;-69
2021/07/06 06:55:24;;;;;;;1.20;1.10;;;19.80;98.00;;;;;;5093389;28;20531;-69
2021/07/06 06:57:52;;;;;;;1.30;1.23;;;19.90;98.00;;;;;;5093641;28;20495;-69
2021/07/06 07:00:19;;;;;;;1.20;1.10;;;20.10;98.00;;;;;;5093627;28;20545;-69
2021/07/06 07:02:49;;;;;;;1.20;1.20;;;20.20;98.00;;;;;;5093520;28;20454;-70
2021/07/06 07:05:16;;;;;;;1.20;1.10;;;20.30;98.00;;;;;;5091542;28;20563;-70
2021/07/06 07:07:43;;;;;;;1.30;1.20;;;20.40;98.00;;;;;;5100398;28;20969;-70
2021/07/06 07:10:12;;;;;;;1.40;1.30;;;20.60;98.00;;;;;;5091466;28;20555;-70
2021/07/06 07:12:39;;;;;;;1.20;1.20;;;20.70;98.00;;;;;;5100474;28;20554;-69
2021/07/06 07:15:10;;;;;;;1.20;1.10;;;20.90;98.00;;;;;;5101237;28;20449;-70
2021/07/06 07:17:45;;;;;;;1.20;1.20;;;21.20;98.00;;;;;;5092625;28;20776;-68
2021/07/06 07:20:12;;;;;;;1.20;1.10;;;21.40;98.00;;;;;;5091788;28;20452;-68
2021/07/06 07:22:43;;;;;;;1.20;1.10;;;21.60;98.00;;;;;;5091402;28;20506;-67
2021/07/06 07:25:11;;;;;;;1.40;1.20;;;21.70;98.00;;;;;;5093544;28;20463;-68
2021/07/06 07:27:38;;;;;;;1.30;1.20;;;21.90;98.00;;;;;;5094108;28;20456;-68
2021/07/06 07:30:07;;;;;;;1.20;1.07;;;22.10;98.00;;;;;;5093912;28;20488;-69
2021/07/06 07:32:35;;;;;;;1.30;1.20;;;22.30;98.00;;;;;;5093658;28;21018;-68
2021/07/06 07:35:04;;;;;;;1.80;1.40;;;22.60;98.00;;;;;;5093830;28;20867;-67
2021/07/06 07:37:30;;;;;;;1.20;1.10;;;22.90;98.00;;;;;;5093925;28;20448;-68
2021/07/06 07:39:59;;;;;;;1.20;1.10;;;23.00;98.00;;;;;;5093843;28;20498;-68
2021/07/06 07:42:26;;;;;;;1.20;1.10;;;23.10;98.00;;;;;;5092675;28;20965;-68
2021/07/06 07:44:53;;;;;;;1.40;1.40;;;23.10;98.00;;;;;;5092490;28;20455;-68
2021/07/06 07:47:20;;;;;;;2.70;1.93;;;23.20;98.00;;;;;;5092372;28;20513;-68
2021/07/06 07:49:53;;;;;;;1.23;1.20;;;23.40;98.00;;;;;;5093620;28;20472;-67
2021/07/06 07:52:20;;;;;;;1.60;1.20;;;23.60;98.00;;;;;;5093764;28;20460;-67
2021/07/06 07:54:49;;;;;;;1.20;1.10;;;23.60;98.00;;;;;;5092186;28;20494;-68
2021/07/06 07:57:24;;;;;;;1.20;1.20;;;23.60;98.00;;;;;;5093629;28;20448;-68
2021/07/06 07:59:51;;;;;;;1.30;1.20;;;23.70;98.00;;;;;;5093138;28;20590;-68
2021/07/06 08:02:18;;;;;;;1.20;1.17;;;23.80;98.00;;;;;;5093423;28;20846;-68
2021/07/06 08:04:45;;;;;;;1.20;1.20;;;24.00;98.00;;;;;;5092139;28;20517;-68
2021/07/06 08:07:14;;;;;;;1.20;1.20;;;24.20;98.00;;;;;;5092985;28;20501;-68
2021/07/06 08:09:41;;;;;;;1.27;1.20;;;24.40;98.00;;;;;;5092798;28;20456;-69
2021/07/06 08:12:09;;;;;;;1.20;1.17;;;24.60;98.00;;;;;;5093184;28;20505;-70
2021/07/06 08:14:36;;;;;;;1.40;1.30;;;24.80;98.00;;;;;;5092166;28;20467;-69
2021/07/06 08:17:03;;;;;;;1.30;1.10;;;25.10;98.00;;;;;;5092012;28;20824;-70
2021/07/06 08:19:30;;;;;;;1.30;1.20;;;25.30;98.00;;;;;;5092107;28;20463;-70
2021/07/06 08:21:57;;;;;;;1.20;1.10;;;25.50;98.00;;;;;;5098696;28;20659;-69
2021/07/06 08:24:26;;;;;;;1.50;1.13;;;25.60;97.90;;;;;;5099978;28;20532;-70
2021/07/06 08:26:53;;;;;;;1.97;1.30;;;25.70;96.90;;;;;;5092415;28;20459;-69
2021/07/06 08:29:20;;;;;;;1.30;1.20;;;25.90;97.20;;;;;;5106440;28;21260;-68
2021/07/06 08:31:47;;;;;;;1.20;1.10;;;26.00;96.70;;;;;;5108388;28;21074;-68
2021/07/06 08:34:15;;;;;;;1.67;1.23;;;26.10;95.50;;;;;;5089459;28;20513;-68
2021/07/06 08:36:42;;;;;;;1.20;1.10;;;26.20;97.10;;;;;;5098605;28;21017;-69
2021/07/06 08:39:09;;;;;;;1.40;1.23;;;26.30;96.30;;;;;;5098865;28;20459;-70
2021/07/06 08:41:40;;;;;;;1.30;1.20;;;26.30;97.70;;;;;;5100609;28;20452;-70
2021/07/06 08:44:07;;;;;;;1.30;1.20;;;26.40;95.40;;;;;;5071025;28;20452;-69
2021/07/06 08:46:37;;;;;;;1.30;1.20;;;26.50;94.40;;;;;;5090373;28;20483;-69
2021/07/06 08:49:05;;;;;;;1.53;1.20;;;26.70;97.10;;;;;;5098660;28;20524;-73
2021/07/06 08:51:33;;;;;;;1.30;1.20;;;26.80;95.00;;;;;;5089141;28;20511;-70
2021/07/06 08:54:00;;;;;;;1.30;1.13;;;26.70;94.90;;;;;;5099657;28;21016;-71
2021/07/06 08:56:27;;;;;;;1.20;1.10;;;26.70;94.10;;;;;;5099708;28;20452;-69
2021/07/06 08:58:56;;;;;;;1.30;1.20;;;26.50;94.00;;;;;;5091330;28;20460;-69
2021/07/06 09:01:30;;;;;;;1.20;1.20;;;26.40;94.90;;;;;;5092086;28;20471;-69
2021/07/06 09:03:59;;;;;;;1.20;1.10;;;26.60;93.30;;;;;;5089365;28;20455;-70
2021/07/06 09:06:28;;;;;;;1.30;1.20;;;26.70;95.50;;;;;;5098628;28;20459;-70
2021/07/06 09:09:16;;;;;;;1.47;1.27;;;26.90;94.80;;;;;;5099225;28;20455;-70
2021/07/06 09:11:48;;;;;;;1.40;1.20;;;27.10;94.60;;;;;;5089125;28;20488;-69
2021/07/06 09:14:17;;;;;;;1.50;1.30;;;27.40;93.70;;;;;;5094084;28;20480;-70
2021/07/06 09:16:45;;;;;;;1.50;1.30;;;27.50;92.30;;;;;;5090808;28;20516;-70
2021/07/06 09:19:21;;;;;;;1.30;1.20;;;27.60;96.20;;;;;;5090104;28;20550;-70
2021/07/06 09:22:09;;;;;;;1.90;1.40;;;27.60;93.50;;;;;;5098645;28;20467;-71
2021/07/06 09:24:36;;;;;;;1.40;1.30;;;27.70;92.90;;;;;;5102396;28;20457;-69
2021/07/06 09:27:26;;;;;;;1.20;1.20;;;27.70;92.50;;;;;;5088705;28;20505;-68
2021/07/06 09:30:20;;;;;;;1.30;1.20;;;27.90;91.10;;;;;;5089156;28;21001;-70
2021/07/06 09:32:48;;;;;;;1.20;1.10;;;28.00;91.70;;;;;;5080883;28;20510;-70
2021/07/06 09:35:17;;;;;;;1.70;1.40;;;27.90;91.10;;;;;;5107068;28;20467;-70
2021/07/06 09:37:50;;;;;;;1.63;1.33;;;27.80;90.50;;;;;;5107228;28;20921;-71
2021/07/06 09:40:32;;;;;;;1.30;1.10;;;27.50;91.50;;;;;;5098022;28;20513;-69
2021/07/06 09:43:17;;;;;;;1.30;1.30;;;27.20;91.90;;;;;;5098034;28;20489;-69
2021/07/06 09:45:52;;;;;;;1.20;1.10;;;26.80;93.60;;;;;;5099488;28;20512;-70
2021/07/06 09:48:19;;;;;;;1.90;1.50;;;26.60;95.30;;;;;;5107560;28;20473;-69
2021/07/06 09:50:49;;;;;;;1.30;1.10;;;26.40;95.20;;;;;;5070153;28;20491;-69
2021/07/06 09:53:27;;;;;;;1.30;1.30;;;25.50;96.50;;;;;;5097681;28;20467;-68
2021/07/06 09:55:55;;;;;;;1.20;1.20;;;24.70;98.00;;;;;;5099536;28;20458;-69
2021/07/06 09:58:22;;;;;;;1.60;1.30;;;24.10;98.00;;;;;;5098175;28;20455;-70
2021/07/06 10:00:52;;;;;;;1.20;1.10;;;23.50;98.00;;;;;;5089831;28;20530;-66
2021/07/06 10:03:19;;;;;;;1.30;1.20;;;23.10;98.00;;;;;;5098796;28;20969;-67
2021/07/06 10:05:49;;;;;;;1.20;1.20;;;22.80;98.00;;;;;;5098889;28;20854;-74
2021/07/06 10:08:22;;;;;;;1.23;1.17;;;22.70;98.00;;;;;;5106605;28;20459;-63
2021/07/06 10:10:49;;;;;;;1.60;1.30;;;22.80;98.00;;;;;;5095104;28;20582;-68
2021/07/06 10:13:17;;;;;;;1.37;1.30;;;22.90;98.00;;;;;;5110957;28;20463;-70
2021/07/06 10:15:46;;;;;;;1.20;1.10;;;23.00;98.00;;;;;;5102717;28;20454;-70
2021/07/06 10:18:21;;;;;;;1.30;1.17;;;23.10;98.00;;;;;;5093840;28;21007;-70
2021/07/06 10:20:48;;;;;;;1.20;1.00;;;23.20;98.00;;;;;;5100991;28;20522;-71
2021/07/06 10:23:19;;;;;;;1.43;1.27;;;23.30;98.00;;;;;;5110595;28;20508;-71
2021/07/06 10:25:46;;;;;;;1.30;1.30;;;23.40;98.00;;;;;;5101586;28;20468;-70
2021/07/06 10:28:18;;;;;;;1.20;1.10;;;23.70;98.00;;;;;;5103914;28;21136;-70
2021/07/06 10:30:47;;;;;;;1.20;1.10;;;24.00;98.00;;;;;;5100970;28;20525;-70
2021/07/06 10:33:27;;;;;;;1.30;1.10;;;24.20;98.00;;;;;;5095805;28;20548;-71
2021/07/06 10:35:55;;;;;;;1.30;1.20;;;24.50;98.00;;;;;;5111602;28;20580;-70
2021/07/06 10:38:46;;;;;;;1.50;1.20;;;24.70;98.00;;;;;;5101888;28;21038;-69
2021/07/06 10:41:16;;;;;;;1.20;1.10;;;24.80;97.70;;;;;;5094760;28;20451;-70
2021/07/06 10:43:59;;;;;;;1.30;1.20;;;25.00;98.00;;;;;;5093205;28;20456;-70
2021/07/06 10:46:43;;;;;;;1.20;1.10;;;25.20;97.40;;;;;;5102372;28;20459;-71
2021/07/06 10:49:15;;;;;;;1.20;1.10;;;25.10;98.00;;;;;;5074398;28;20457;-72
2021/07/06 10:51:52;;;;;;;1.20;1.10;;;25.20;97.00;;;;;;5095377;28;20549;-71
2021/07/06 10:54:39;;;;;;;1.20;1.20;;;25.20;95.80;;;;;;5104916;28;20977;-70
2021/07/06 10:57:25;;;;;;;1.50;1.30;;;25.20;95.40;;;;;;5103852;28;21023;-70
2021/07/06 10:59:58;;;;;;;1.20;1.10;;;25.10;95.50;;;;;;5093423;28;20460;-70
2021/07/06 11:02:27;;;;;;;1.20;1.10;;;25.00;97.00;;;;;;5100797;28;20480;-71
2021/07/06 11:05:05;;;;;;;1.20;1.10;;;25.00;96.00;;;;;;5110098;28;20466;-69
2021/07/06 11:07:56;;;;;;;1.20;1.10;;;24.90;96.70;;;;;;5103112;28;20770;-70
2021/07/06 11:10:36;;;;;;;1.20;1.10;;;24.90;97.30;;;;;;5090411;28;20965;-69
2021/07/06 11:13:17;;;;;;;1.20;1.00;;;24.80;98.00;;;;;;5110215;28;20455;-69
2021/07/06 11:15:44;;;;;;;1.20;1.10;;;24.90;97.90;;;;;;5095400;28;20471;-69
2021/07/06 11:18:11;;;;;;;1.20;1.00;;;25.00;97.50;;;;;;5107778;28;20491;-73
2021/07/06 11:20:42;;;;;;;1.20;1.00;;;25.20;97.20;;;;;;5100469;28;20513;-70
2021/07/06 11:23:11;;;;;;;1.20;1.10;;;25.50;95.50;;;;;;5109105;28;20455;-69
2021/07/06 11:25:53;;;;;;;1.20;1.10;;;25.50;95.00;;;;;;5102388;28;20490;-69
2021/07/06 11:28:25;;;;;;;1.23;1.10;;;25.50;96.10;;;;;;5083472;28;20444;-72
2021/07/06 11:30:54;;;;;;;1.40;1.20;;;25.70;95.90;;;;;;5101269;28;21030;-69
2021/07/06 11:33:24;;;;;;;1.30;1.10;;;25.80;94.70;;;;;;5100592;28;20540;-69
2021/07/06 11:35:54;;;;;;;1.20;1.10;;;25.80;94.40;;;;;;5101576;28;20485;-67
2021/07/06 11:38:23;;;;;;;1.30;1.10;;;25.70;93.60;;;;;;5109619;28;20482;-68
2021/07/06 11:40:53;;;;;;;1.50;1.27;;;25.70;95.20;;;;;;5093049;28;20475;-70
2021/07/06 11:43:22;;;;;;;1.30;1.30;;;25.90;93.80;;;;;;5101358;28;20945;-68
2021/07/06 11:45:50;;;;;;;1.20;1.13;;;25.80;93.90;;;;;;5110201;28;20459;-68
2021/07/06 11:48:19;;;;;;;1.20;1.13;;;25.50;94.80;;;;;;5092299;28;20456;-67
2021/07/06 11:50:48;;;;;;;1.20;1.03;;;25.30;95.20;;;;;;5092378;28;20463;-69
2021/07/06 11:53:24;;;;;;;1.20;1.10;;;25.10;95.00;;;;;;5108453;28;20459;-70
2021/07/06 11:55:51;;;;;;;1.20;1.10;;;24.90;97.20;;;;;;5099827;28;21316;-69
2021/07/06 11:58:22;;;;;;;1.20;1.10;;;24.80;97.60;;;;;;5107755;28;20510;-69
2021/07/06 12:00:49;;;;;;;1.20;1.10;;;24.40;97.10;;;;;;5092020;28;20514;-69
2021/07/06 12:03:22;;;;;;;1.40;1.10;;;24.00;98.00;;;;;;5080611;28;20457;-67
2021/07/06 12:05:50;;;;;;;1.30;1.17;;;23.80;98.00;;;;;;5108701;28;20561;-68
2021/07/06 12:08:22;;;;;;;1.93;1.30;;;23.60;98.00;;;;;;5099109;28;20452;-67
2021/07/06 12:10:54;;;;;;;1.40;1.30;;;23.50;98.00;;;;;;5097858;28;20463;-68
2021/07/06 12:13:21;;;;;;;1.30;1.20;;;23.60;98.00;;;;;;5091058;28;20491;-68
2021/07/06 12:15:49;;;;;;;1.70;1.10;;;23.60;98.00;;;;;;5102695;28;21110;-69
2021/07/06 12:18:16;;;;;;;1.30;1.10;;;23.60;98.00;;;;;;5089459;28;20521;-67
2021/07/06 12:20:54;;;;;;;1.20;1.10;;;23.60;98.00;;;;;;5099542;28;20475;-67
2021/07/06 12:23:22;;;;;;;1.27;1.13;;;23.70;98.00;;;;;;5087267;28;21022;-68
2021/07/06 12:25:55;;;;;;;1.20;1.10;;;23.80;98.00;;;;;;5107893;28;20512;-72
2021/07/06 12:28:23;;;;;;;1.30;1.30;;;23.80;98.00;;;;;;5099732;28;20933;-68
2021/07/06 12:31:27;;;;;;;1.20;1.10;;;24.00;98.00;;;;;;5099776;28;20824;-68
2021/07/06 12:34:05;;;;;;;1.20;1.10;;;24.00;98.00;;;;;;5108019;28;20451;-68
2021/07/06 12:36:34;;;;;;;1.30;1.10;;;24.00;98.00;;;;;;5072139;28;20456;-67
2021/07/06 12:39:18;;;;;;;1.20;1.20;;;24.00;98.00;;;;;;5072486;28;20832;-70
2021/07/06 12:41:47;;;;;;;1.20;1.20;;;24.00;98.00;;;;;;5071505;28;20461;-69
2021/07/06 12:44:17;;;;;;;1.83;1.20;;;23.90;98.00;;;;;;5071862;28;20465;-69
2021/07/06 12:46:44;;;;;;;1.30;1.20;;;23.70;98.00;;;;;;5072183;28;20498;-68
2021/07/06 12:49:22;;;;;;;1.20;1.20;;;23.40;98.00;;;;;;5072165;28;20461;-69
2021/07/06 12:52:02;;;;;;;1.67;1.43;;;23.20;98.00;;;;;;5070477;28;21020;-68
2021/07/06 12:54:34;;;;;;;1.20;1.10;;;23.20;98.00;;;;;;5070201;28;20516;-69
2021/07/06 12:57:02;;;;;;;1.20;1.10;;;23.40;98.00;;;;;;5071342;28;20461;-69
2021/07/06 12:59:32;;;;;;;1.20;1.20;;;23.40;98.00;;;;;;5071638;28;20811;-69
2021/07/06 13:02:19;;;;;;;1.20;1.10;;;23.50;98.00;;;;;;5071464;28;20484;-68
2021/07/06 13:04:58;;;;;;;1.20;1.10;;;23.70;98.00;;;;;;5071450;28;20495;-69
2021/07/06 13:07:29;;;;;;;1.40;1.30;;;23.80;98.00;;;;;;5071281;28;20472;-69
2021/07/06 13:10:12;;;;;;;1.70;1.17;;;23.60;98.00;;;;;;5071191;28;20489;-68
2021/07/06 13:12:41;;;;;;;1.20;1.10;;;23.40;98.00;;;;;;5070044;28;21058;-68
2021/07/06 13:15:10;;;;;;;1.50;1.30;;;23.40;98.00;;;;;;5070741;28;20469;-68
2021/07/06 13:17:58;;;;;;;1.20;1.10;;;23.60;98.00;;;;;;5071230;28;20453;-68
2021/07/06 13:20:26;;;;;;;1.47;1.20;;;23.80;98.00;;;;;;5070478;28;20461;-69
2021/07/06 13:22:56;;;;;;;1.20;1.17;;;23.90;98.00;;;;;;5070945;28;20449;-69
2021/07/06 13:25:25;;;;;;;1.20;1.20;;;24.00;98.00;;;;;;5070775;28;20453;-69
2021/07/06 13:27:57;;;;;;;1.20;1.20;;;24.10;98.00;;;;;;5070891;28;20457;-69
2021/07/06 13:30:26;;;;;;;1.30;1.10;;;24.20;98.00;;;;;;5070771;28;20468;-69
2021/07/06 13:32:53;;;;;;;1.20;1.00;;;24.30;98.00;;;;;;5069628;28;20480;-69
2021/07/06 13:35:20;;;;;;;1.20;1.07;;;24.30;98.00;;;;;;5070818;28;20485;-68
2021/07/06 13:37:49;;;;;;;1.20;1.10;;;24.00;98.00;;;;;;5070959;28;20461;-68
2021/07/06 13:40:18;;;;;;;1.20;1.10;;;23.90;98.00;;;;;;5070713;28;20480;-69
2021/07/06 13:42:47;;;;;;;1.60;1.30;;;23.70;98.00;;;;;;5070916;28;20453;-68